createdAt,value
2023-05-25T00:01:04.355Z,4
2023-05-25T00:02:28.977Z,4
2023-05-25T00:03:36.261Z,4
2023-05-25T00:04:44.986Z,4
2023-05-25T00:07:57.029Z,4
2023-05-25T00:09:53.372Z,4
2023-05-25T00:11:08.484Z,4
2023-05-25T00:12:46.997Z,4
2023-05-25T00:13:57.018Z,4
2023-05-25T00:15:05.030Z,4
2023-05-25T00:16:12.250Z,4
2023-05-25T00:17:21.960Z,4
2023-05-25T00:18:32.451Z,4
2023-05-25T00:19:39.961Z,4
2023-05-25T00:20:54.869Z,4
2023-05-25T00:22:01.844Z,4
2023-05-25T00:23:09.060Z,4
2023-05-25T00:24:19.135Z,4
2023-05-25T00:25:26.205Z,4
2023-05-25T00:26:42.002Z,4
2023-05-25T00:28:49.343Z,4
2023-05-25T00:30:09.542Z,4
2023-05-25T00:31:17.125Z,4
2023-05-25T00:32:24.058Z,4
2023-05-25T00:33:38.195Z,3
2023-05-25T00:34:58.479Z,4
2023-05-25T00:36:05.485Z,4
2023-05-25T00:37:12.373Z,4
2023-05-25T00:38:19.183Z,4
2023-05-25T00:39:26.087Z,4
2023-05-25T00:40:32.894Z,4
2023-05-25T00:41:46.105Z,4
2023-05-25T00:42:56.091Z,4
2023-05-25T00:44:02.883Z,4
2023-05-25T00:45:09.717Z,4
2023-05-25T00:46:16.846Z,5
2023-05-25T00:47:23.620Z,5
2023-05-25T00:48:30.558Z,5
2023-05-25T00:49:38.245Z,5
2023-05-25T00:50:45.175Z,5
2023-05-25T00:51:51.913Z,5
2023-05-25T00:52:58.783Z,5
2023-05-25T00:54:05.941Z,5
2023-05-25T00:55:12.809Z,5
2023-05-25T00:56:19.581Z,5
2023-05-25T00:57:35.353Z,5
2023-05-25T00:58:42.201Z,5
2023-05-25T00:59:48.977Z,5
2023-05-25T01:00:55.751Z,5
2023-05-25T01:02:02.668Z,5
2023-05-25T01:03:12.447Z,5
2023-05-25T01:04:19.156Z,5
2023-05-25T01:05:26.013Z,5
2023-05-25T01:06:32.960Z,5
2023-05-25T01:07:39.761Z,5
2023-05-25T01:08:46.598Z,5
2023-05-25T01:09:53.437Z,5
2023-05-25T01:11:00.205Z,5
2023-05-25T01:12:07.000Z,5
2023-05-25T01:13:13.804Z,5
2023-05-25T01:14:20.632Z,5
2023-05-25T01:15:27.484Z,5
2023-05-25T01:16:34.303Z,5
2023-05-25T01:17:41.094Z,5
2023-05-25T01:18:47.922Z,5
2023-05-25T01:21:01.656Z,5
2023-05-25T01:22:18.573Z,6
2023-05-25T01:23:30.938Z,5
2023-05-25T01:24:37.755Z,6
2023-05-25T01:25:47.589Z,6
2023-05-25T01:26:54.393Z,6
2023-05-25T01:28:01.208Z,5
2023-05-25T01:29:10.772Z,5
2023-05-25T01:30:17.587Z,5
2023-05-25T01:31:24.453Z,6
2023-05-25T01:32:31.222Z,5
2023-05-25T01:33:37.942Z,6
2023-05-25T01:34:44.683Z,5
2023-05-25T01:35:51.519Z,5
2023-05-25T01:36:58.320Z,5
2023-05-25T01:38:05.095Z,5
2023-05-25T01:39:11.903Z,5
2023-05-25T01:40:18.730Z,5
2023-05-25T01:41:25.514Z,5
2023-05-25T01:42:32.296Z,5
2023-05-25T01:43:39.234Z,5
2023-05-25T01:44:46.168Z,5
2023-05-25T01:45:53.038Z,5
2023-05-25T01:46:59.768Z,5
2023-05-25T01:48:06.622Z,5
2023-05-25T01:49:16.486Z,5
2023-05-25T01:50:28.339Z,5
2023-05-25T01:51:40.195Z,5
2023-05-25T01:52:52.118Z,5
2023-05-25T01:54:01.541Z,5
2023-05-25T01:55:08.306Z,5
2023-05-25T01:56:15.118Z,6
2023-05-25T01:57:22.023Z,5
2023-05-25T01:58:28.871Z,6
2023-05-25T01:59:35.685Z,5
2023-05-25T02:00:42.540Z,5
2023-05-25T02:01:52.133Z,5
2023-05-25T02:02:56.442Z,5
2023-05-25T02:04:03.244Z,5
2023-05-25T02:05:10.025Z,5
2023-05-25T02:06:16.830Z,6
2023-05-25T02:07:23.638Z,5
2023-05-25T02:08:30.569Z,5
2023-05-25T02:09:37.503Z,5
2023-05-25T02:10:44.154Z,5
2023-05-25T02:11:50.954Z,5
2023-05-25T02:12:57.769Z,5
2023-05-25T02:14:04.594Z,5
2023-05-25T02:15:11.401Z,5
2023-05-25T02:16:18.290Z,5
2023-05-25T02:17:25.071Z,5
2023-05-25T02:18:31.965Z,5
2023-05-25T02:19:38.764Z,5
2023-05-25T02:20:45.676Z,6
2023-05-25T02:21:52.482Z,5
2023-05-25T02:22:59.274Z,6
2023-05-25T02:24:06.038Z,7
2023-05-25T02:25:12.876Z,7
2023-05-25T02:26:19.698Z,7
2023-05-25T02:27:26.510Z,6
2023-05-25T02:28:33.435Z,7
2023-05-25T02:29:40.195Z,7
2023-05-25T02:30:47.216Z,7
2023-05-25T02:31:54.087Z,8
2023-05-25T02:33:00.970Z,8
2023-05-25T02:34:07.820Z,7
2023-05-25T02:35:14.551Z,7
2023-05-25T02:36:21.317Z,7
2023-05-25T02:37:28.124Z,7
2023-05-25T02:38:35.010Z,6
2023-05-25T02:39:41.921Z,7
2023-05-25T02:40:48.767Z,7
2023-05-25T02:41:55.535Z,7
2023-05-25T02:43:02.367Z,7
2023-05-25T02:44:09.182Z,7
2023-05-25T02:45:16.044Z,7
2023-05-25T02:46:23.005Z,7
2023-05-25T02:47:29.661Z,7
2023-05-25T02:48:36.436Z,8
2023-05-25T02:49:43.342Z,7
2023-05-25T02:50:50.119Z,6
2023-05-25T02:51:57.024Z,7
2023-05-25T02:53:03.782Z,8
2023-05-25T02:54:10.540Z,7
2023-05-25T02:55:17.417Z,7
2023-05-25T02:56:24.212Z,6
2023-05-25T02:57:30.990Z,7
2023-05-25T02:58:37.768Z,7
2023-05-25T02:59:44.618Z,7
2023-05-25T03:00:51.513Z,8
2023-05-25T03:01:58.373Z,7
2023-05-25T03:03:05.217Z,7
2023-05-25T03:04:11.858Z,7
2023-05-25T03:05:18.694Z,7
2023-05-25T03:06:25.516Z,7
2023-05-25T03:07:32.323Z,6
2023-05-25T03:08:39.150Z,7
2023-05-25T03:09:45.938Z,7
2023-05-25T03:10:52.942Z,7
2023-05-25T03:11:59.847Z,7
2023-05-25T03:13:06.619Z,8
2023-05-25T03:14:13.444Z,7
2023-05-25T03:15:20.245Z,8
2023-05-25T03:16:27.089Z,7
2023-05-25T03:17:33.905Z,8
2023-05-25T03:18:40.691Z,8
2023-05-25T03:19:47.581Z,7
2023-05-25T03:20:54.537Z,7
2023-05-25T03:22:01.474Z,8
2023-05-25T03:23:08.294Z,8
2023-05-25T03:24:15.101Z,8
2023-05-25T03:25:21.911Z,8
2023-05-25T03:26:28.763Z,8
2023-05-25T03:27:35.567Z,8
2023-05-25T03:28:42.348Z,8
2023-05-25T03:29:49.090Z,7
2023-05-25T03:30:55.878Z,8
2023-05-25T03:32:02.622Z,7
2023-05-25T03:33:09.675Z,7
2023-05-25T03:34:16.405Z,7
2023-05-25T03:35:23.131Z,7
2023-05-25T03:36:29.897Z,7
2023-05-25T03:37:36.608Z,7
2023-05-25T03:38:43.468Z,7
2023-05-25T03:39:50.179Z,7
2023-05-25T03:40:56.962Z,7
2023-05-25T03:42:03.805Z,7
2023-05-25T03:43:10.682Z,7
2023-05-25T03:44:17.416Z,7
2023-05-25T03:45:24.176Z,7
2023-05-25T03:46:31.067Z,7
2023-05-25T03:47:37.785Z,7
2023-05-25T03:48:44.660Z,6
2023-05-25T03:49:51.412Z,7
2023-05-25T03:50:58.132Z,6
2023-05-25T03:52:05.031Z,7
2023-05-25T03:53:11.739Z,6
2023-05-25T03:54:18.526Z,7
2023-05-25T03:55:25.313Z,7
2023-05-25T03:56:32.047Z,7
2023-05-25T03:57:38.855Z,6
2023-05-25T03:58:45.736Z,7
2023-05-25T03:59:52.384Z,7
2023-05-25T04:00:59.149Z,7
2023-05-25T04:02:06.102Z,7
2023-05-25T04:03:12.933Z,7
2023-05-25T04:04:19.765Z,7
2023-05-25T04:05:26.496Z,7
2023-05-25T04:06:33.280Z,7
2023-05-25T04:07:40.201Z,7
2023-05-25T04:08:46.916Z,7
2023-05-25T04:09:53.680Z,7
2023-05-25T04:11:00.436Z,6
2023-05-25T04:12:07.348Z,7
2023-05-25T04:13:14.131Z,7
2023-05-25T04:14:20.977Z,7
2023-05-25T04:15:27.648Z,7
2023-05-25T04:16:34.436Z,6
2023-05-25T04:17:41.235Z,7
2023-05-25T04:18:48.039Z,7
2023-05-25T04:19:54.885Z,7
2023-05-25T04:21:01.614Z,7
2023-05-25T04:22:08.392Z,6
2023-05-25T04:23:15.229Z,6
2023-05-25T04:24:21.950Z,7
2023-05-25T04:25:29.486Z,6
2023-05-25T04:26:35.445Z,7
2023-05-25T04:27:42.171Z,7
2023-05-25T04:28:48.966Z,7
2023-05-25T04:29:55.771Z,7
2023-05-25T04:31:02.575Z,7
2023-05-25T04:32:09.421Z,7
2023-05-25T04:33:16.204Z,6
2023-05-25T04:34:23.008Z,7
2023-05-25T04:35:29.771Z,7
2023-05-25T04:36:36.598Z,7
2023-05-25T04:37:43.365Z,8
2023-05-25T04:38:50.216Z,8
2023-05-25T04:39:57.080Z,7
2023-05-25T04:41:03.903Z,7
2023-05-25T04:42:10.792Z,8
2023-05-25T04:43:17.544Z,8
2023-05-25T04:44:24.379Z,7
2023-05-25T04:45:31.192Z,8
2023-05-25T04:46:37.960Z,8
2023-05-25T04:47:44.825Z,7
2023-05-25T04:48:51.661Z,7
2023-05-25T04:49:58.598Z,7
2023-05-25T04:51:05.380Z,8
2023-05-25T04:52:12.193Z,7
2023-05-25T04:53:18.928Z,8
2023-05-25T04:54:25.826Z,8
2023-05-25T04:55:32.628Z,8
2023-05-25T04:56:39.482Z,8
2023-05-25T04:57:46.269Z,9
2023-05-25T04:58:53.072Z,8
2023-05-25T04:59:59.864Z,7
2023-05-25T05:01:06.868Z,8
2023-05-25T05:02:13.665Z,8
2023-05-25T05:03:20.560Z,7
2023-05-25T05:04:27.364Z,8
2023-05-25T05:05:35.385Z,7
2023-05-25T05:06:42.165Z,8
2023-05-25T05:07:48.888Z,9
2023-05-25T05:08:55.677Z,8
2023-05-25T05:10:02.550Z,7
2023-05-25T05:11:09.564Z,8
2023-05-25T05:12:16.434Z,8
2023-05-25T05:13:23.228Z,8
2023-05-25T05:14:30.164Z,9
2023-05-25T05:15:37.066Z,9
2023-05-25T05:16:43.848Z,9
2023-05-25T05:17:50.682Z,9
2023-05-25T05:18:57.409Z,8
2023-05-25T05:20:04.242Z,9
2023-05-25T05:21:11.476Z,9
2023-05-25T05:22:18.208Z,8
2023-05-25T05:23:25.043Z,9
2023-05-25T05:24:31.819Z,9
2023-05-25T05:25:38.762Z,9
2023-05-25T05:26:57.073Z,8
2023-05-25T05:27:52.494Z,9
2023-05-25T05:28:59.332Z,9
2023-05-25T05:30:06.176Z,10
2023-05-25T05:31:13.189Z,10
2023-05-25T05:32:20.082Z,11
2023-05-25T05:33:26.929Z,10
2023-05-25T05:34:33.728Z,9
2023-05-25T05:35:40.556Z,11
2023-05-25T05:36:57.089Z,10
2023-05-25T05:37:54.137Z,9
2023-05-25T05:39:00.887Z,9
2023-05-25T05:40:07.638Z,10
2023-05-25T05:41:14.619Z,9
2023-05-25T05:42:21.608Z,9
2023-05-25T05:43:28.409Z,9
2023-05-25T05:44:35.380Z,10
2023-05-25T05:45:42.223Z,10
2023-05-25T05:46:49.020Z,9
2023-05-25T05:47:55.859Z,11
2023-05-25T05:49:02.650Z,9
2023-05-25T05:50:09.444Z,9
2023-05-25T05:51:16.249Z,10
2023-05-25T05:52:23.133Z,9
2023-05-25T05:53:29.920Z,10
2023-05-25T05:54:36.707Z,9
2023-05-25T05:55:43.633Z,10
2023-05-25T05:56:50.348Z,8
2023-05-25T05:57:57.211Z,9
2023-05-25T05:59:04.009Z,9
2023-05-25T06:00:10.801Z,9
2023-05-25T06:01:17.861Z,9
2023-05-25T06:02:24.832Z,8
2023-05-25T06:03:31.700Z,9
2023-05-25T06:04:38.477Z,10
2023-05-25T06:05:45.447Z,9
2023-05-25T06:06:52.020Z,10
2023-05-25T06:07:58.806Z,8
2023-05-25T06:09:05.572Z,9
2023-05-25T06:10:12.393Z,10
2023-05-25T06:11:19.157Z,9
2023-05-25T06:12:26.009Z,10
2023-05-25T06:13:32.820Z,10
2023-05-25T06:14:39.555Z,10
2023-05-25T06:15:46.667Z,10
2023-05-25T06:16:53.380Z,9
2023-05-25T06:18:00.299Z,10
2023-05-25T06:19:07.034Z,10
2023-05-25T06:20:14.004Z,9
2023-05-25T06:21:20.867Z,9
2023-05-25T06:22:27.667Z,9
2023-05-25T06:23:34.598Z,10
2023-05-25T06:24:41.351Z,9
2023-05-25T06:25:48.105Z,9
2023-05-25T06:26:54.879Z,9
2023-05-25T06:28:01.724Z,9
2023-05-25T06:29:08.487Z,9
2023-05-25T06:30:15.381Z,8
2023-05-25T06:31:22.263Z,9
2023-05-25T06:32:29.080Z,8
2023-05-25T06:33:35.877Z,8
2023-05-25T06:34:42.665Z,9
2023-05-25T06:35:51.010Z,8
2023-05-25T06:36:56.240Z,7
2023-05-25T06:38:03.278Z,8
2023-05-25T06:39:10.078Z,7
2023-05-25T06:40:16.878Z,7
2023-05-25T06:41:23.657Z,7
2023-05-25T06:42:30.477Z,8
2023-05-25T06:43:37.376Z,7
2023-05-25T06:44:44.203Z,7
2023-05-25T06:45:51.060Z,7
2023-05-25T06:46:57.879Z,9
2023-05-25T06:48:04.639Z,10
2023-05-25T06:49:11.471Z,9
2023-05-25T06:50:18.537Z,8
2023-05-25T06:51:25.393Z,5
2023-05-25T06:52:32.187Z,5
2023-05-25T06:53:38.946Z,5
2023-05-25T06:54:45.836Z,5
2023-05-25T06:55:52.596Z,5
2023-05-25T06:56:59.425Z,4
2023-05-25T06:58:06.237Z,4
2023-05-25T06:59:13.171Z,4
2023-05-25T07:00:19.979Z,4
2023-05-25T07:01:26.911Z,4
2023-05-25T07:02:33.790Z,4
2023-05-25T07:03:40.526Z,5
2023-05-25T07:04:47.477Z,5
2023-05-25T07:05:54.385Z,4
2023-05-25T07:07:01.146Z,4
2023-05-25T07:08:08.054Z,4
2023-05-25T07:09:14.860Z,4
2023-05-25T07:10:21.696Z,4
2023-05-25T07:11:28.586Z,4
2023-05-25T07:12:35.386Z,4
2023-05-25T07:13:42.305Z,4
2023-05-25T07:14:49.099Z,4
2023-05-25T07:15:55.967Z,4
2023-05-25T07:17:02.784Z,4
2023-05-25T07:18:09.619Z,5
2023-05-25T07:19:16.435Z,6
2023-05-25T07:20:23.222Z,6
2023-05-25T07:21:30.109Z,5
2023-05-25T07:22:36.870Z,5
2023-05-25T07:23:43.615Z,5
2023-05-25T07:24:50.411Z,4
2023-05-25T07:25:57.265Z,4
2023-05-25T07:27:04.133Z,4
2023-05-25T07:28:10.890Z,5
2023-05-25T07:29:17.714Z,4
2023-05-25T07:30:24.585Z,4
2023-05-25T07:31:31.407Z,4
2023-05-25T07:32:38.198Z,4
2023-05-25T07:33:44.909Z,5
2023-05-25T07:34:51.708Z,5
2023-05-25T07:35:58.598Z,5
2023-05-25T07:37:05.511Z,5
2023-05-25T07:38:12.250Z,5
2023-05-25T07:39:19.113Z,5
2023-05-25T07:40:25.916Z,5
2023-05-25T07:41:32.788Z,4
2023-05-25T07:42:39.708Z,4
2023-05-25T07:43:46.509Z,4
2023-05-25T07:44:53.474Z,4
2023-05-25T07:46:00.292Z,5
2023-05-25T07:47:07.365Z,5
2023-05-25T07:48:14.026Z,4
2023-05-25T07:49:20.830Z,5
2023-05-25T07:50:27.996Z,5
2023-05-25T07:51:35.420Z,4
2023-05-25T07:52:42.257Z,5
2023-05-25T07:53:49.060Z,5
2023-05-25T07:54:55.908Z,7
2023-05-25T07:56:02.671Z,6
2023-05-25T07:57:09.697Z,6
2023-05-25T07:58:16.513Z,6
2023-05-25T07:59:23.303Z,9
2023-05-25T08:00:30.140Z,6
2023-05-25T08:01:36.934Z,11
2023-05-25T08:02:43.993Z,8
2023-05-25T08:03:50.698Z,6
2023-05-25T08:04:57.533Z,6
2023-05-25T08:06:04.278Z,5
2023-05-25T08:07:11.439Z,4
2023-05-25T08:08:17.988Z,4
2023-05-25T08:09:24.801Z,4
2023-05-25T08:10:32.659Z,5
2023-05-25T08:11:39.431Z,4
2023-05-25T08:12:48.308Z,4
2023-05-25T08:13:53.073Z,5
2023-05-25T08:14:59.891Z,5
2023-05-25T08:16:06.959Z,5
2023-05-25T08:17:13.829Z,4
2023-05-25T08:18:20.553Z,4
2023-05-25T08:19:27.389Z,4
2023-05-25T08:20:37.282Z,5
2023-05-25T08:21:44.010Z,5
2023-05-25T08:22:50.751Z,5
2023-05-25T08:23:57.508Z,5
2023-05-25T08:25:04.278Z,5
2023-05-25T08:26:28.983Z,5
2023-05-25T08:27:18.006Z,5
2023-05-25T08:28:24.807Z,6
2023-05-25T08:29:31.614Z,7
2023-05-25T08:30:38.419Z,6
2023-05-25T08:31:45.137Z,5
2023-05-25T08:32:51.928Z,4
2023-05-25T08:33:58.782Z,5
2023-05-25T08:35:05.569Z,6
2023-05-25T08:36:12.400Z,6
2023-05-25T08:37:19.176Z,6
2023-05-25T08:38:25.903Z,6
2023-05-25T08:39:34.771Z,6
2023-05-25T08:40:39.551Z,5
2023-05-25T08:41:46.301Z,5
2023-05-25T08:42:53.093Z,5
2023-05-25T08:43:59.920Z,7
2023-05-25T08:45:06.688Z,7
2023-05-25T08:46:13.580Z,6
2023-05-25T08:47:23.237Z,6
2023-05-25T08:48:39.815Z,7
2023-05-25T08:49:36.846Z,7
2023-05-25T08:50:43.578Z,8
2023-05-25T08:51:50.395Z,7
2023-05-25T08:52:57.193Z,7
2023-05-25T08:54:03.965Z,7
2023-05-25T08:55:13.351Z,7
2023-05-25T08:56:20.125Z,6
2023-05-25T08:57:27.123Z,5
2023-05-25T08:58:41.780Z,5
2023-05-25T08:59:48.554Z,7
2023-05-25T09:01:03.069Z,10
2023-05-25T09:02:09.971Z,6
2023-05-25T09:03:27.085Z,5
2023-05-25T09:04:36.680Z,6
2023-05-25T09:05:43.736Z,6
2023-05-25T09:07:01.980Z,6
2023-05-25T09:07:56.972Z,5
2023-05-25T09:09:05.973Z,6
2023-05-25T09:10:14.690Z,7
2023-05-25T09:11:35.110Z,8
2023-05-25T09:12:29.066Z,8
2023-05-25T09:13:35.833Z,7
2023-05-25T09:14:42.595Z,7
2023-05-25T09:15:49.522Z,7
2023-05-25T09:16:56.302Z,7
2023-05-25T09:18:03.099Z,7
2023-05-25T09:19:09.859Z,8
2023-05-25T09:20:16.683Z,7
2023-05-25T09:21:23.471Z,7
2023-05-25T09:22:30.370Z,8
2023-05-25T09:23:37.177Z,8
2023-05-25T09:24:43.970Z,10
2023-05-25T09:25:50.865Z,10
2023-05-25T09:26:57.750Z,10
2023-05-25T09:28:17.531Z,8
2023-05-25T09:29:11.601Z,6
2023-05-25T09:30:18.356Z,7
2023-05-25T09:31:25.328Z,9
2023-05-25T09:32:32.186Z,6
2023-05-25T09:33:38.893Z,7
2023-05-25T09:34:45.620Z,7
2023-05-25T09:35:52.366Z,6
2023-05-25T09:36:59.313Z,6
2023-05-25T09:38:14.874Z,8
2023-05-25T09:39:21.488Z,7
2023-05-25T09:40:28.113Z,8
2023-05-25T09:41:37.732Z,9
2023-05-25T09:42:44.531Z,14
2023-05-25T09:44:01.822Z,10
2023-05-25T09:44:58.048Z,7
2023-05-25T09:46:04.932Z,6
2023-05-25T09:47:11.905Z,6
2023-05-25T09:48:18.662Z,7
2023-05-25T09:49:25.497Z,15
2023-05-25T09:50:32.261Z,15
2023-05-25T09:51:39.085Z,22
2023-05-25T09:52:45.893Z,11
2023-05-25T09:53:52.661Z,8
2023-05-25T09:54:59.480Z,9
2023-05-25T09:56:06.422Z,12
2023-05-25T09:57:13.218Z,9
2023-05-25T09:58:20.033Z,7
2023-05-25T09:59:26.818Z,12
2023-05-25T10:00:33.636Z,11
2023-05-25T10:01:41.891Z,8
2023-05-25T10:02:50.220Z,6
2023-05-25T10:05:04.983Z,8
2023-05-25T10:06:11.824Z,6
2023-05-25T10:07:18.642Z,6
2023-05-25T10:08:27.962Z,6
2023-05-25T10:09:32.302Z,6
2023-05-25T10:10:39.206Z,5
2023-05-25T10:11:46.008Z,6
2023-05-25T10:12:52.787Z,5
2023-05-25T10:13:59.669Z,5
2023-05-25T10:15:06.461Z,5
2023-05-25T10:16:13.413Z,5
2023-05-25T10:17:23.249Z,5
2023-05-25T10:18:29.981Z,5
2023-05-25T10:19:36.835Z,5
2023-05-25T10:20:43.791Z,5
2023-05-25T10:21:50.475Z,6
2023-05-25T10:22:57.273Z,6
2023-05-25T10:24:04.126Z,6
2023-05-25T10:25:13.906Z,6
2023-05-25T10:26:28.537Z,6
2023-05-25T10:27:35.257Z,6
2023-05-25T10:28:42.032Z,6
2023-05-25T10:29:49.045Z,6
2023-05-25T10:30:55.819Z,5
2023-05-25T10:32:02.899Z,6
2023-05-25T10:33:11.266Z,7
2023-05-25T10:34:21.126Z,5
2023-05-25T10:35:27.886Z,5
2023-05-25T10:36:34.709Z,5
2023-05-25T10:37:41.586Z,5
2023-05-25T10:38:48.385Z,4
2023-05-25T10:39:55.206Z,5
2023-05-25T10:41:02.021Z,5
2023-05-25T10:42:08.924Z,4
2023-05-25T10:43:15.696Z,4
2023-05-25T10:44:22.664Z,4
2023-05-25T10:45:29.377Z,5
2023-05-25T10:46:36.255Z,5
2023-05-25T10:47:43.181Z,5
2023-05-25T10:48:49.926Z,5
2023-05-25T10:49:56.759Z,5
2023-05-25T10:51:03.558Z,5
2023-05-25T10:52:10.352Z,6
2023-05-25T10:53:17.153Z,6
2023-05-25T10:54:23.924Z,6
2023-05-25T10:55:33.328Z,5
2023-05-25T10:56:50.410Z,5
2023-05-25T10:58:08.540Z,6
2023-05-25T10:59:15.244Z,4
2023-05-25T11:00:27.134Z,5
2023-05-25T11:01:34.046Z,6
2023-05-25T11:02:40.761Z,5
2023-05-25T11:03:52.665Z,5
2023-05-25T11:04:59.459Z,5
2023-05-25T11:06:16.379Z,5
2023-05-25T11:07:23.288Z,6
2023-05-25T11:08:30.083Z,6
2023-05-25T11:09:47.023Z,6
2023-05-25T11:11:01.677Z,6
2023-05-25T11:12:08.599Z,6
2023-05-25T11:13:20.396Z,7
2023-05-25T11:14:32.273Z,6
2023-05-25T11:15:41.961Z,6
2023-05-25T11:16:48.830Z,6
2023-05-25T11:18:05.708Z,6
2023-05-25T11:19:12.469Z,5
2023-05-25T11:20:19.259Z,5
2023-05-25T11:21:28.746Z,6
2023-05-25T11:22:38.627Z,6
2023-05-25T11:23:45.492Z,6
2023-05-25T11:24:57.736Z,5
2023-05-25T11:26:04.626Z,5
2023-05-25T11:27:11.451Z,6
2023-05-25T11:28:18.205Z,6
2023-05-25T11:29:24.986Z,6
2023-05-25T11:30:31.815Z,5
2023-05-25T11:31:42.406Z,5
2023-05-25T11:32:45.483Z,5
2023-05-25T11:33:52.274Z,6
2023-05-25T11:34:59.037Z,5
2023-05-25T11:36:05.850Z,6
2023-05-25T11:37:12.663Z,6
2023-05-25T11:38:19.519Z,5
2023-05-25T11:39:26.283Z,6
2023-05-25T11:40:33.355Z,6
2023-05-25T11:41:40.056Z,7
2023-05-25T11:42:46.875Z,6
2023-05-25T11:43:53.638Z,5
2023-05-25T11:45:00.436Z,6
2023-05-25T11:46:07.450Z,5
2023-05-25T11:47:14.284Z,6
2023-05-25T11:48:21.112Z,6
2023-05-25T11:49:27.945Z,6
2023-05-25T11:50:34.794Z,6
2023-05-25T11:51:41.622Z,5
2023-05-25T11:52:48.453Z,5
2023-05-25T11:53:55.221Z,6
2023-05-25T11:55:02.086Z,6
2023-05-25T11:57:20.871Z,7
2023-05-25T11:58:27.770Z,6
2023-05-25T11:59:39.888Z,5
2023-05-25T12:00:54.351Z,7
2023-05-25T12:02:01.251Z,7
2023-05-25T12:03:08.272Z,7
2023-05-25T12:04:15.227Z,6
2023-05-25T12:05:21.859Z,6
2023-05-25T12:06:28.620Z,7
2023-05-25T12:07:35.924Z,6
2023-05-25T12:08:45.338Z,6
2023-05-25T12:09:52.121Z,6
2023-05-25T12:11:06.918Z,7
2023-05-25T12:12:13.834Z,6
2023-05-25T12:13:20.628Z,6
2023-05-25T12:14:27.392Z,7
2023-05-25T12:15:34.158Z,7
2023-05-25T12:16:41.123Z,7
2023-05-25T12:17:47.834Z,8
2023-05-25T12:18:54.605Z,8
2023-05-25T12:20:01.549Z,8
2023-05-25T12:21:08.576Z,8
2023-05-25T12:22:18.109Z,8
2023-05-25T12:23:24.921Z,7
2023-05-25T12:24:31.733Z,7
2023-05-25T12:25:49.509Z,9
2023-05-25T12:26:45.329Z,8
2023-05-25T12:27:54.888Z,7
2023-05-25T12:29:11.729Z,7
2023-05-25T12:30:18.626Z,7
2023-05-25T12:31:25.567Z,8
2023-05-25T12:32:32.374Z,7
2023-05-25T12:33:39.149Z,7
2023-05-25T12:34:45.935Z,8
2023-05-25T12:35:52.807Z,8
2023-05-25T12:36:59.575Z,7
2023-05-25T12:38:06.432Z,8
2023-05-25T12:39:22.533Z,7
2023-05-25T12:40:32.905Z,8
2023-05-25T12:41:39.667Z,8
2023-05-25T12:42:49.272Z,8
2023-05-25T12:43:58.656Z,8
2023-05-25T12:45:05.611Z,6
2023-05-25T12:46:12.675Z,7
2023-05-25T12:47:19.538Z,6
2023-05-25T12:48:26.358Z,7
2023-05-25T12:49:33.228Z,7
2023-05-25T12:50:41.020Z,8
2023-05-25T12:51:51.993Z,8
2023-05-25T12:52:58.766Z,8
2023-05-25T12:54:05.544Z,6
2023-05-25T12:55:12.349Z,7
2023-05-25T12:56:36.909Z,7
2023-05-25T12:58:07.229Z,6
2023-05-25T12:59:14.133Z,6
2023-05-25T13:00:20.963Z,6
2023-05-25T13:01:27.729Z,7
2023-05-25T13:02:34.615Z,7
2023-05-25T13:03:41.624Z,7
2023-05-25T13:04:48.403Z,7
2023-05-25T13:05:55.278Z,7
2023-05-25T13:07:04.610Z,7
2023-05-25T13:08:11.308Z,7
2023-05-25T13:09:18.164Z,6
2023-05-25T13:10:25.127Z,6
2023-05-25T13:11:31.851Z,7
2023-05-25T13:12:38.660Z,7
2023-05-25T13:13:45.462Z,7
2023-05-25T13:14:52.248Z,7
2023-05-25T13:15:58.989Z,7
2023-05-25T13:17:05.797Z,7
2023-05-25T13:18:12.688Z,7
2023-05-25T13:19:19.644Z,7
2023-05-25T13:20:26.435Z,8
2023-05-25T13:21:33.241Z,8
2023-05-25T13:22:40.062Z,8
2023-05-25T13:23:46.772Z,8
2023-05-25T13:24:53.651Z,9
2023-05-25T13:26:00.494Z,8
2023-05-25T13:27:07.401Z,7
2023-05-25T13:28:14.173Z,8
2023-05-25T13:29:20.951Z,8
2023-05-25T13:30:27.803Z,9
2023-05-25T13:31:34.668Z,7
2023-05-25T13:32:41.458Z,8
2023-05-25T13:33:48.203Z,8
2023-05-25T13:34:54.978Z,8
2023-05-25T13:36:01.814Z,8
2023-05-25T13:37:11.650Z,8
2023-05-25T13:38:18.475Z,7
2023-05-25T13:39:25.251Z,9
2023-05-25T13:40:32.059Z,8
2023-05-25T13:41:38.870Z,8
2023-05-25T13:42:45.676Z,7
2023-05-25T13:43:52.491Z,8
2023-05-25T13:44:59.249Z,8
2023-05-25T13:46:06.059Z,8
2023-05-25T13:47:13.011Z,8
2023-05-25T13:48:19.980Z,8
2023-05-25T13:49:26.784Z,7
2023-05-25T13:50:33.558Z,8
2023-05-25T13:51:52.861Z,8
2023-05-25T13:52:59.756Z,8
2023-05-25T13:54:06.675Z,8
2023-05-25T13:55:13.488Z,9
2023-05-25T13:56:20.278Z,9
2023-05-25T13:57:27.335Z,9
2023-05-25T13:58:34.133Z,9
2023-05-25T13:59:40.952Z,9
2023-05-25T14:00:47.747Z,9
2023-05-25T14:01:56.114Z,8
2023-05-25T14:03:01.467Z,8
2023-05-25T14:04:08.278Z,10
2023-05-25T14:05:15.059Z,9
2023-05-25T14:06:21.861Z,9
2023-05-25T14:07:28.775Z,10
2023-05-25T14:08:35.613Z,8
2023-05-25T14:10:49.230Z,8
2023-05-25T14:11:56.020Z,9
2023-05-25T14:13:02.983Z,9
2023-05-25T14:14:19.677Z,10
2023-05-25T14:15:16.753Z,9
2023-05-25T14:16:23.653Z,10
2023-05-25T14:17:30.407Z,9
2023-05-25T14:18:37.267Z,10
2023-05-25T14:19:44.047Z,9
2023-05-25T14:20:50.883Z,9
2023-05-25T14:22:12.235Z,9
2023-05-25T14:23:04.516Z,10
2023-05-25T14:24:11.342Z,8
2023-05-25T14:25:18.111Z,9
2023-05-25T14:26:24.833Z,10
2023-05-25T14:27:31.666Z,8
2023-05-25T14:28:38.526Z,8
2023-05-25T14:29:45.320Z,10
2023-05-25T14:30:52.085Z,11
2023-05-25T14:31:58.937Z,11
2023-05-25T14:33:05.817Z,10
2023-05-25T14:34:12.601Z,10
2023-05-25T14:35:19.416Z,10
2023-05-25T14:36:26.264Z,10
2023-05-25T14:37:33.076Z,11
2023-05-25T14:38:40.004Z,11
2023-05-25T14:39:46.747Z,10
2023-05-25T14:40:53.592Z,8
2023-05-25T14:42:00.379Z,9
2023-05-25T14:43:07.249Z,10
2023-05-25T14:44:14.150Z,10
2023-05-25T14:45:20.934Z,10
2023-05-25T14:46:27.744Z,10
2023-05-25T14:47:34.533Z,11
2023-05-25T14:48:41.362Z,10
2023-05-25T14:49:48.106Z,9
2023-05-25T14:50:54.890Z,10
2023-05-25T14:52:01.672Z,10
2023-05-25T14:53:08.474Z,8
2023-05-25T14:54:15.337Z,9
2023-05-25T14:55:22.228Z,11
2023-05-25T14:56:29.067Z,10
2023-05-25T14:57:35.804Z,10
2023-05-25T14:58:42.636Z,10
2023-05-25T14:59:49.518Z,11
2023-05-25T15:00:56.274Z,10
2023-05-25T15:02:03.135Z,10
2023-05-25T15:03:10.023Z,9
2023-05-25T15:04:16.778Z,8
2023-05-25T15:05:23.680Z,9
2023-05-25T15:06:30.547Z,9
2023-05-25T15:07:37.349Z,9
2023-05-25T15:08:44.095Z,8
2023-05-25T15:09:51.022Z,8
2023-05-25T15:10:57.865Z,8
2023-05-25T15:12:04.745Z,7
2023-05-25T15:13:13.275Z,9
2023-05-25T15:14:18.419Z,10
2023-05-25T15:15:25.307Z,8
2023-05-25T15:16:32.196Z,9
2023-05-25T15:17:38.961Z,10
2023-05-25T15:18:45.695Z,9
2023-05-25T15:19:52.563Z,9
2023-05-25T15:20:59.356Z,9
2023-05-25T15:22:06.196Z,9
2023-05-25T15:23:13.131Z,9
2023-05-25T15:24:19.884Z,9
2023-05-25T15:25:34.800Z,10
2023-05-25T15:26:33.544Z,10
2023-05-25T15:27:40.392Z,10
2023-05-25T15:28:47.172Z,10
2023-05-25T15:29:53.985Z,8
2023-05-25T15:31:02.692Z,10
2023-05-25T15:32:07.689Z,10
2023-05-25T15:33:14.495Z,10
2023-05-25T15:34:21.226Z,9
2023-05-25T15:35:27.949Z,9
2023-05-25T15:36:34.837Z,9
2023-05-25T15:37:41.756Z,9
2023-05-25T15:38:48.562Z,9
2023-05-25T15:39:55.299Z,9
2023-05-25T15:41:02.105Z,9
2023-05-25T15:42:08.999Z,8
2023-05-25T15:43:15.779Z,9
2023-05-25T15:44:22.673Z,9
2023-05-25T15:45:29.432Z,9
2023-05-25T15:46:36.251Z,9
2023-05-25T15:47:43.169Z,9
2023-05-25T15:48:49.942Z,9
2023-05-25T15:49:56.719Z,8
2023-05-25T15:51:03.509Z,8
2023-05-25T15:52:10.329Z,8
2023-05-25T15:53:17.071Z,9
2023-05-25T15:54:23.820Z,8
2023-05-25T15:55:30.573Z,8
2023-05-25T15:56:37.353Z,8
2023-05-25T15:57:44.218Z,10
2023-05-25T15:58:51.020Z,9
2023-05-25T15:59:57.815Z,8
2023-05-25T16:01:04.812Z,8
2023-05-25T16:02:11.551Z,8
2023-05-25T16:03:18.448Z,8
2023-05-25T16:04:25.244Z,8
2023-05-25T16:05:32.002Z,9
2023-05-25T16:06:38.818Z,9
2023-05-25T16:07:45.716Z,10
2023-05-25T16:08:52.531Z,8
2023-05-25T16:09:59.317Z,8
2023-05-25T16:11:06.166Z,9
2023-05-25T16:12:12.944Z,9
2023-05-25T16:13:19.781Z,9
2023-05-25T16:14:26.608Z,9
2023-05-25T16:15:33.417Z,9
2023-05-25T16:16:40.198Z,10
2023-05-25T16:17:46.921Z,9
2023-05-25T16:18:53.873Z,9
2023-05-25T16:20:00.635Z,12
2023-05-25T16:21:07.647Z,13
2023-05-25T16:22:14.410Z,14
2023-05-25T16:23:21.321Z,13
2023-05-25T16:24:28.175Z,12
2023-05-25T16:25:34.944Z,10
2023-05-25T16:26:41.741Z,8
2023-05-25T16:27:48.559Z,10
2023-05-25T16:28:55.422Z,11
2023-05-25T16:30:02.229Z,12
2023-05-25T16:31:09.333Z,10
2023-05-25T16:32:16.107Z,10
2023-05-25T16:33:22.883Z,10
2023-05-25T16:34:29.712Z,10
2023-05-25T16:35:36.522Z,10
2023-05-25T16:36:43.295Z,9
2023-05-25T16:37:50.110Z,10
2023-05-25T16:38:56.865Z,9
2023-05-25T16:40:03.754Z,9
2023-05-25T16:41:10.977Z,9